Terminal Aerodrome Forecast
Issued by NWS Wilmington, OH

Current Version | Previous Version | Text Only | Print | Product List | Glossary Off
Versions: 1 2 3 4 5 6 7 8 9 10 11 12 13 14 15 16 17 18 19 20 21

000
FTUS41 KILN 221700
TAFDAY
TAF
KDAY 221738Z 2218/2318 12010KT P6SM SCT025 OVC150
      TEMPO 2302/2304 -SHRA SCT008 OVC025
     FM230400 15013KT P6SM VCSH SCT008 OVC020
      TEMPO 2304/2308 5SM -SHRA BR BKN010
     FM231400 17007KT P6SM VCSH OVC015=

USA.gov is the U.S. government's official web portal to all federal, state and local government web resources and services.